Time;durP1;ratioP1;P1;durP2;ratioP2;P2;SDS_P1;SDS_P2;PMS_P1;PMS_P2;Temp;Humidity;BMP_temperature;BMP_pressure;BME280_temperature;BME280_humidity;BME280_pressure;Samples;Min_cycle;Max_cycle;Signal;HPM_P1;HPM_P2
2022/11/15 00:01:00;;;;;;;12.97;6.20;;;;;;;;;;5013112;28;20022;-67
2022/11/15 00:03:26;;;;;;;5.72;3.05;;;;;;;;;;5010332;28;20304;-67
2022/11/15 00:05:51;;;;;;;9.05;3.75;;;;;;;;;;5008701;28;20088;-67
2022/11/15 00:08:17;;;;;;;7.90;3.25;;;;;;;;;;5012754;28;20064;-67
2022/11/15 00:10:42;;;;;;;8.73;4.95;;;;;;;;;;5011919;28;20024;-67
2022/11/15 00:13:11;;;;;;;13.98;5.47;;;;;;;;;;5012009;28;20022;-67
2022/11/15 00:15:37;;;;;;;6.80;2.50;;;;;;;;;;5019230;22;20571;-67
2022/11/15 00:18:06;;;;;;;7.35;3.60;;;;;;;;;;5011304;28;20030;-67
2022/11/15 00:20:33;;;;;;;8.90;4.30;;;;;;;;;;5011334;28;20022;-68
2022/11/15 00:22:58;;;;;;;6.72;3.97;;;;;;;;;;5011314;28;20025;-67
2022/11/15 00:25:23;;;;;;;6.77;3.37;;;;;;;;;;5012416;28;20022;-67
2022/11/15 00:27:49;;;;;;;17.50;5.38;;;;;;;;;;5012000;28;20281;-67
2022/11/15 00:30:14;;;;;;;11.18;5.00;;;;;;;;;;5011465;28;20030;-67
2022/11/15 00:32:39;;;;;;;10.13;3.42;;;;;;;;;;5005372;28;20017;-67
2022/11/15 00:35:04;;;;;;;12.27;5.43;;;;;;;;;;5004412;28;20029;-67
2022/11/15 00:37:30;;;;;;;8.13;3.33;;;;;;;;;;5006736;28;20269;-67
2022/11/15 00:39:55;;;;;;;27.00;4.47;;;;;;;;;;5011499;28;20021;-68
2022/11/15 00:42:20;;;;;;;14.67;5.83;;;;;;;;;;5011657;28;20014;-67
2022/11/15 00:44:45;;;;;;;10.30;4.50;;;;;;;;;;5010923;28;20304;-67
2022/11/15 00:47:10;;;;;;;13.23;6.17;;;;;;;;;;5005609;28;20281;-67
2022/11/15 00:49:36;;;;;;;4.35;2.70;;;;;;;;;;5006205;28;20343;-67
2022/11/15 00:52:01;;;;;;;12.10;3.77;;;;;;;;;;5010647;28;20731;-67
2022/11/15 00:54:26;;;;;;;11.13;4.13;;;;;;;;;;5011007;28;20300;-67
2022/11/15 00:56:51;;;;;;;6.22;3.92;;;;;;;;;;5010442;28;20279;-67
2022/11/15 00:59:16;;;;;;;7.13;4.13;;;;;;;;;;5010871;28;20030;-67
2022/11/15 01:01:41;;;;;;;7.40;4.07;;;;;;;;;;5005731;28;20289;-67
2022/11/15 01:04:07;;;;;;;7.17;3.73;;;;;;;;;;5009171;28;20268;-68
2022/11/15 01:06:32;;;;;;;6.30;2.83;;;;;;;;;;5008890;28;20307;-67
2022/11/15 01:08:57;;;;;;;8.00;2.70;;;;;;;;;;5012236;28;20014;-67
2022/11/15 01:11:22;;;;;;;11.02;5.25;;;;;;;;;;5010455;28;20261;-67
2022/11/15 01:13:47;;;;;;;14.77;5.37;;;;;;;;;;5010011;28;20022;-67
2022/11/15 01:16:14;;;;;;;13.37;3.83;;;;;;;;;;5002573;28;20807;-67
2022/11/15 01:18:39;;;;;;;11.05;3.78;;;;;;;;;;5007756;28;20296;-67
2022/11/15 01:21:06;;;;;;;10.15;4.35;;;;;;;;;;5010888;28;20056;-67
2022/11/15 01:23:31;;;;;;;11.85;5.00;;;;;;;;;;5010465;28;20026;-67
2022/11/15 01:26:00;;;;;;;10.10;5.30;;;;;;;;;;5009708;28;20080;-67
2022/11/15 01:28:25;;;;;;;9.18;4.13;;;;;;;;;;5010685;28;20340;-67
2022/11/15 01:30:50;;;;;;;9.23;3.13;;;;;;;;;;5007810;28;20113;-67
2022/11/15 01:33:15;;;;;;;12.13;3.93;;;;;;;;;;5008421;28;20026;-67
2022/11/15 01:35:40;;;;;;;14.05;4.78;;;;;;;;;;5010227;28;20775;-67
2022/11/15 01:38:06;;;;;;;8.07;4.30;;;;;;;;;;5010307;28;20030;-67
2022/11/15 01:40:31;;;;;;;8.27;3.15;;;;;;;;;;5009571;28;20270;-67
2022/11/15 01:42:56;;;;;;;13.05;5.32;;;;;;;;;;5009392;28;20014;-67
2022/11/15 01:45:21;;;;;;;10.45;4.90;;;;;;;;;;5002241;28;20030;-67
2022/11/15 01:47:51;;;;;;;8.27;3.67;;;;;;;;;;5009527;28;20018;-67
2022/11/15 01:50:18;;;;;;;6.20;3.00;;;;;;;;;;5010847;28;20494;-68
2022/11/15 01:52:44;;;;;;;6.40;2.78;;;;;;;;;;5008842;28;20029;-67
2022/11/15 01:55:11;;;;;;;12.38;4.20;;;;;;;;;;5010073;28;20014;-67
2022/11/15 01:57:37;;;;;;;13.90;4.32;;;;;;;;;;5007696;28;20076;-67
2022/11/15 02:00:03;;;;;;;15.18;4.75;;;;;;;;;;5005279;28;20096;-67
2022/11/15 02:02:28;;;;;;;9.00;5.38;;;;;;;;;;5007373;28;20033;-67
2022/11/15 02:04:53;;;;;;;16.33;6.33;;;;;;;;;;5004524;28;20022;-67
2022/11/15 02:07:19;;;;;;;3.75;2.20;;;;;;;;;;5006887;28;20645;-67
2022/11/15 02:09:45;;;;;;;10.95;5.22;;;;;;;;;;5010201;28;20014;-67
2022/11/15 02:12:12;;;;;;;12.98;4.28;;;;;;;;;;5009019;28;20042;-67
2022/11/15 02:14:39;;;;;;;16.88;6.40;;;;;;;;;;5005159;28;20029;-67
2022/11/15 02:17:43;;;;;;;9.63;5.25;;;;;;;;;;5007417;28;20030;-67
2022/11/15 02:20:08;;;;;;;10.95;4.70;;;;;;;;;;4929907;29;20023;-67
2022/11/15 02:22:37;;;;;;;12.65;5.72;;;;;;;;;;4929331;29;20041;-67
2022/11/15 02:25:21;;;;;;;10.35;5.20;;;;;;;;;;4965899;28;20401;-67
2022/11/15 02:27:54;;;;;;;14.80;5.75;;;;;;;;;;5003365;28;20044;-67
2022/11/15 02:30:31;;;;;;;13.82;6.00;;;;;;;;;;5006913;28;20014;-67
2022/11/15 02:32:58;;;;;;;17.27;6.13;;;;;;;;;;5006767;28;20126;-68
2022/11/15 02:35:30;;;;;;;13.02;6.18;;;;;;;;;;5008249;28;20605;-67
2022/11/15 02:37:57;;;;;;;12.90;5.68;;;;;;;;;;5009946;28;20484;-67
2022/11/15 02:40:31;;;;;;;10.80;5.53;;;;;;;;;;5007013;28;20033;-68
2022/11/15 02:45:45;;;;;;;11.43;5.28;;;;;;;;;;5008630;28;20125;-68
2022/11/15 02:48:11;;;;;;;15.38;6.13;;;;;;;;;;5006084;28;20477;-68
2022/11/15 02:50:36;;;;;;;11.95;5.28;;;;;;;;;;5005854;28;20026;-67
2022/11/15 02:53:02;;;;;;;9.18;4.25;;;;;;;;;;5009283;28;20211;-67
2022/11/15 02:55:32;;;;;;;12.48;5.97;;;;;;;;;;5010032;28;20018;-67
2022/11/15 02:58:00;;;;;;;10.88;5.68;;;;;;;;;;5000814;28;20022;-67
2022/11/15 03:00:26;;;;;;;10.23;5.22;;;;;;;;;;5003728;28;20026;-67
2022/11/15 03:03:06;;;;;;;9.23;5.13;;;;;;;;;;5009307;28;20029;-67
2022/11/15 03:05:31;;;;;;;;;;;;;;;;;;5007655;28;20747;-67
2022/11/15 03:07:57;;;;;;;6.82;3.60;;;;;;;;;;5009325;28;20392;-67
2022/11/15 03:10:26;;;;;;;9.80;5.22;;;;;;;;;;5006480;28;20014;-67
2022/11/15 03:12:51;;;;;;;10.20;4.35;;;;;;;;;;5002895;28;20405;-67
2022/11/15 03:15:21;;;;;;;14.50;5.30;;;;;;;;;;5005807;28;20136;-67
2022/11/15 03:17:59;;;;;;;11.15;4.60;;;;;;;;;;4999699;28;20277;-67
2022/11/15 03:20:26;;;;;;;8.52;3.35;;;;;;;;;;5003148;28;20425;-67
2022/11/15 03:22:53;;;;;;;12.38;4.78;;;;;;;;;;5008652;28;20018;-67
2022/11/15 03:25:20;;;;;;;8.65;3.17;;;;;;;;;;5013388;28;20018;-67
2022/11/15 03:27:51;;;;;;;9.55;4.00;;;;;;;;;;5012091;28;20017;-67
2022/11/15 03:30:17;;;;;;;4.88;2.95;;;;;;;;;;5013752;28;20028;-67
2022/11/15 03:32:54;;;;;;;7.57;3.33;;;;;;;;;;5010503;28;20025;-67
2022/11/15 03:35:20;;;;;;;10.10;5.07;;;;;;;;;;5003252;28;20010;-67
2022/11/15 03:37:50;;;;;;;16.10;4.95;;;;;;;;;;5012254;28;20033;-68
2022/11/15 03:40:17;;;;;;;5.38;3.05;;;;;;;;;;5011322;28;20410;-67
2022/11/15 03:42:42;;;;;;;7.57;4.03;;;;;;;;;;5010958;28;20076;-67
2022/11/15 03:45:07;;;;;;;9.20;3.10;;;;;;;;;;5012991;28;20021;-67
2022/11/15 03:47:34;;;;;;;10.00;4.77;;;;;;;;;;5011624;28;20772;-67
2022/11/15 03:50:02;;;;;;;8.75;5.18;;;;;;;;;;5013171;28;20338;-68
2022/11/15 03:52:30;;;;;;;11.68;5.00;;;;;;;;;;5011952;28;20088;-67
2022/11/15 03:54:56;;;;;;;6.13;2.95;;;;;;;;;;5013068;28;20018;-68
2022/11/15 03:57:21;;;;;;;7.15;3.80;;;;;;;;;;5010634;28;20045;-67
2022/11/15 03:59:46;;;;;;;9.05;4.10;;;;;;;;;;5012670;28;20382;-68
2022/11/15 04:02:12;;;;;;;7.80;3.97;;;;;;;;;;5008346;28;20029;-67
2022/11/15 04:04:37;;;;;;;9.52;4.88;;;;;;;;;;5006096;28;20393;-67
2022/11/15 04:07:02;;;;;;;5.72;3.28;;;;;;;;;;5011256;28;20040;-68
2022/11/15 04:09:27;;;;;;;21.25;4.53;;;;;;;;;;5012796;28;20418;-67
2022/11/15 04:11:52;;;;;;;7.93;3.67;;;;;;;;;;5012332;28;20014;-67
2022/11/15 04:14:18;;;;;;;5.38;2.65;;;;;;;;;;5011888;28;20673;-67
2022/11/15 04:16:43;;;;;;;7.57;3.70;;;;;;;;;;5003192;28;20674;-67
2022/11/15 04:24:36;;;;;;;10.18;5.10;;;;;;;;;;5010647;28;20433;-67
2022/11/15 04:27:01;;;;;;;4.43;2.83;;;;;;;;;;5011070;28;20014;-67
2022/11/15 04:29:35;;;;;;;8.70;4.25;;;;;;;;;;5011987;28;20268;-67
2022/11/15 04:32:02;;;;;;;4.55;2.50;;;;;;;;;;5009622;28;20064;-67
2022/11/15 04:34:27;;;;;;;6.75;4.22;;;;;;;;;;5009918;28;20018;-67
2022/11/15 04:39:36;;;;;;;10.73;4.75;;;;;;;;;;5011808;28;20752;-68
2022/11/15 04:42:02;;;;;;;9.43;2.92;;;;;;;;;;5011388;28;20030;-67
2022/11/15 04:44:27;;;;;;;7.13;3.53;;;;;;;;;;5011141;28;20044;-67
2022/11/15 04:46:52;;;;;;;9.57;4.70;;;;;;;;;;5004944;28;20061;-68
2022/11/15 04:49:17;;;;;;;5.17;3.50;;;;;;;;;;5003375;28;20018;-67
2022/11/15 04:51:42;;;;;;;8.50;4.40;;;;;;;;;;5011828;28;20749;-67
2022/11/15 04:54:08;;;;;;;5.35;3.50;;;;;;;;;;5009206;28;21207;-67
2022/11/15 04:56:33;;;;;;;11.40;3.90;;;;;;;;;;5010494;28;20398;-67
2022/11/15 04:58:58;;;;;;;9.95;3.85;;;;;;;;;;5010097;28;21248;-67
2022/11/15 05:01:23;;;;;;;4.30;2.37;;;;;;;;;;5006540;28;20117;-67
2022/11/15 05:06:32;;;;;;;6.90;4.63;;;;;;;;;;5009371;28;20119;-67
2022/11/15 05:08:57;;;;;;;5.70;1.90;;;;;;;;;;5011103;28;20049;-67
2022/11/15 05:11:23;;;;;;;7.05;4.50;;;;;;;;;;5010279;28;20018;-66
2022/11/15 05:13:48;;;;;;;7.65;2.90;;;;;;;;;;5009695;28;20029;-66
2022/11/15 05:16:13;;;;;;;3.97;2.08;;;;;;;;;;5003701;28;20138;-67
2022/11/15 05:18:42;;;;;;;7.28;4.18;;;;;;;;;;5007751;28;20269;-67
2022/11/15 05:21:08;;;;;;;9.70;4.10;;;;;;;;;;5008439;28;20026;-67
2022/11/15 05:23:33;;;;;;;6.85;3.95;;;;;;;;;;5011531;28;20024;-67
2022/11/15 05:25:59;;;;;;;4.45;2.53;;;;;;;;;;5010030;28;20022;-68
2022/11/15 05:28:24;;;;;;;6.75;4.28;;;;;;;;;;5010359;28;20026;-68
2022/11/15 05:30:49;;;;;;;3.97;2.47;;;;;;;;;;5010539;28;20049;-67
2022/11/15 05:33:14;;;;;;;5.97;3.37;;;;;;;;;;5010912;28;20279;-67
2022/11/15 05:35:41;;;;;;;8.30;4.13;;;;;;;;;;5010397;28;20741;-67
2022/11/15 05:38:07;;;;;;;8.07;3.58;;;;;;;;;;5007276;28;20281;-67
2022/11/15 05:40:32;;;;;;;5.28;2.70;;;;;;;;;;5008548;28;20026;-67
2022/11/15 05:42:59;;;;;;;3.80;2.33;;;;;;;;;;5008395;28;20079;-68
2022/11/15 05:45:24;;;;;;;4.35;2.40;;;;;;;;;;5004019;28;20026;-67
2022/11/15 05:47:50;;;;;;;3.38;2.58;;;;;;;;;;5004826;28;20025;-68
2022/11/15 05:50:16;;;;;;;5.68;1.92;;;;;;;;;;5007992;28;20034;-67
2022/11/15 05:52:42;;;;;;;9.65;4.10;;;;;;;;;;5008061;28;20030;-68
2022/11/15 05:55:08;;;;;;;4.50;2.85;;;;;;;;;;5007635;28;20025;-67
2022/11/15 05:57:33;;;;;;;6.15;2.42;;;;;;;;;;5007901;28;20120;-66
2022/11/15 05:59:58;;;;;;;10.68;3.45;;;;;;;;;;5005076;28;20108;-66
2022/11/15 06:02:23;;;;;;;8.27;2.38;;;;;;;;;;5007037;28;20041;-67
2022/11/15 06:04:48;;;;;;;6.00;3.07;;;;;;;;;;5008489;28;20444;-67
2022/11/15 06:07:13;;;;;;;3.20;2.30;;;;;;;;;;5006362;28;20297;-67
2022/11/15 06:09:39;;;;;;;5.18;3.17;;;;;;;;;;5007621;28;20357;-67
2022/11/15 06:12:04;;;;;;;6.30;3.43;;;;;;;;;;5007585;28;20511;-68
2022/11/15 06:14:29;;;;;;;3.80;2.33;;;;;;;;;;5006218;28;20362;-67
2022/11/15 06:16:55;;;;;;;6.20;2.88;;;;;;;;;;5028320;22;20042;-68
2022/11/15 06:19:20;;;;;;;5.68;2.40;;;;;;;;;;5006540;28;20044;-68
2022/11/15 06:21:45;;;;;;;6.13;2.90;;;;;;;;;;5007134;28;20018;-68
2022/11/15 06:24:10;;;;;;;10.03;2.87;;;;;;;;;;5005903;28;20745;-68
2022/11/15 06:26:35;;;;;;;9.65;4.28;;;;;;;;;;5004522;28;20285;-68
2022/11/15 06:29:02;;;;;;;7.20;3.97;;;;;;;;;;5007446;28;20014;-68
2022/11/15 06:31:27;;;;;;;8.82;3.05;;;;;;;;;;5006196;28;20104;-68
2022/11/15 06:33:52;;;;;;;4.67;2.97;;;;;;;;;;5006808;28;20097;-68
2022/11/15 06:36:18;;;;;;;5.47;2.83;;;;;;;;;;5004842;28;20268;-68
2022/11/15 06:38:43;;;;;;;4.47;2.38;;;;;;;;;;5007890;28;20292;-68
2022/11/15 06:41:09;;;;;;;6.07;2.15;;;;;;;;;;5004224;28;20028;-68
2022/11/15 06:43:35;;;;;;;5.57;2.50;;;;;;;;;;5008559;28;20022;-68
2022/11/15 06:46:01;;;;;;;4.07;2.20;;;;;;;;;;5009025;28;20382;-68
2022/11/15 06:48:26;;;;;;;3.85;2.40;;;;;;;;;;5009299;28;20049;-68
2022/11/15 06:50:52;;;;;;;3.85;2.55;;;;;;;;;;5008491;28;20386;-68
2022/11/15 06:53:17;;;;;;;2.90;1.70;;;;;;;;;;5006048;28;20045;-68
2022/11/15 06:55:42;;;;;;;3.17;2.00;;;;;;;;;;5004379;28;20480;-68
2022/11/15 06:58:08;;;;;;;8.67;2.80;;;;;;;;;;5002835;28;20284;-68
2022/11/15 07:00:33;;;;;;;3.63;2.30;;;;;;;;;;5013122;28;20731;-68
2022/11/15 07:03:01;;;;;;;6.40;2.80;;;;;;;;;;5013665;28;20265;-68
2022/11/15 07:05:26;;;;;;;2.63;1.48;;;;;;;;;;5013717;28;20319;-69
2022/11/15 07:07:53;;;;;;;2.97;1.75;;;;;;;;;;5011502;28;20029;-68
2022/11/15 07:10:18;;;;;;;3.70;2.22;;;;;;;;;;5009706;28;20023;-68
2022/11/15 07:12:46;;;;;;;3.47;2.13;;;;;;;;;;5012694;28;20024;-68
2022/11/15 07:15:11;;;;;;;2.47;0.80;;;;;;;;;;5011820;28;20064;-68
2022/11/15 07:17:36;;;;;;;3.23;1.60;;;;;;;;;;5011871;28;20461;-68
2022/11/15 07:20:01;;;;;;;4.97;1.87;;;;;;;;;;5012712;28;20260;-68
2022/11/15 07:22:27;;;;;;;2.45;1.65;;;;;;;;;;5012153;28;20350;-68
2022/11/15 07:24:52;;;;;;;7.35;3.33;;;;;;;;;;5012309;28;20022;-68
2022/11/15 07:27:17;;;;;;;9.85;4.72;;;;;;;;;;5002914;28;20026;-69
2022/11/15 07:29:42;;;;;;;6.30;2.83;;;;;;;;;;5013653;28;20026;-69
2022/11/15 07:32:08;;;;;;;3.72;1.90;;;;;;;;;;5012324;28;20037;-69
2022/11/15 07:34:34;;;;;;;2.92;1.90;;;;;;;;;;5013666;28;20022;-69
2022/11/15 07:36:59;;;;;;;4.10;1.47;;;;;;;;;;5011398;28;20033;-69
2022/11/15 07:39:24;;;;;;;2.37;1.37;;;;;;;;;;5009306;28;20836;-69
2022/11/15 07:42:52;;;;;;;4.63;2.23;;;;;;;;;;5010012;28;20277;-69
2022/11/15 07:44:34;;;;;;;5.88;2.47;;;;;;;;;;5012145;28;20252;-69
2022/11/15 07:46:59;;;;;;;9.90;2.53;;;;;;;;;;5008713;28;20014;-69
2022/11/15 07:49:24;;;;;;;8.07;1.87;;;;;;;;;;5012208;28;20415;-69
2022/11/15 07:51:50;;;;;;;2.33;0.93;;;;;;;;;;5013290;28;20298;-69
2022/11/15 07:54:15;;;;;;;5.35;2.35;;;;;;;;;;5008814;28;20273;-69
2022/11/15 07:56:41;;;;;;;2.67;1.83;;;;;;;;;;5007601;28;20513;-69
2022/11/15 07:59:06;;;;;;;4.32;1.95;;;;;;;;;;5008202;28;20273;-69
2022/11/15 08:01:31;;;;;;;2.05;1.63;;;;;;;;;;5003665;28;20025;-69
2022/11/15 08:03:56;;;;;;;2.85;1.63;;;;;;;;;;5010066;28;20029;-69
2022/11/15 08:06:21;;;;;;;4.07;1.95;;;;;;;;;;5011682;28;20371;-69
2022/11/15 08:08:47;;;;;;;4.27;1.60;;;;;;;;;;5010462;28;20466;-69
2022/11/15 08:11:12;;;;;;;4.35;1.60;;;;;;;;;;5006730;28;20285;-69
2022/11/15 08:13:37;;;;;;;2.90;1.47;;;;;;;;;;5012048;28;20096;-69
2022/11/15 08:16:05;;;;;;;2.10;0.87;;;;;;;;;;5006398;28;20277;-69
2022/11/15 08:18:30;;;;;;;5.15;2.20;;;;;;;;;;5003769;28;20285;-69
2022/11/15 08:20:58;;;;;;;3.13;1.63;;;;;;;;;;5009280;28;20401;-69
2022/11/15 08:23:23;;;;;;;3.90;1.20;;;;;;;;;;5003019;28;20119;-69
2022/11/15 08:25:48;;;;;;;6.90;1.97;;;;;;;;;;5010909;28;20546;-69
2022/11/15 08:28:15;;;;;;;2.23;0.93;;;;;;;;;;5010678;28;20301;-69
2022/11/15 08:30:42;;;;;;;4.95;1.90;;;;;;;;;;5011173;28;20296;-69
2022/11/15 08:33:09;;;;;;;3.90;1.05;;;;;;;;;;5005567;28;20030;-69
2022/11/15 08:35:34;;;;;;;2.95;1.15;;;;;;;;;;5009073;28;20425;-69
2022/11/15 08:38:00;;;;;;;1.63;0.90;;;;;;;;;;5008450;28;20029;-69
2022/11/15 08:40:26;;;;;;;5.70;1.60;;;;;;;;;;5008936;28;20368;-69
2022/11/15 08:42:51;;;;;;;2.15;0.77;;;;;;;;;;5010591;28;20045;-69
2022/11/15 08:45:17;;;;;;;8.30;1.40;;;;;;;;;;5009768;28;20454;-69
2022/11/15 08:47:42;;;;;;;5.13;1.77;;;;;;;;;;5005596;28;20330;-69
2022/11/15 08:50:07;;;;;;;4.37;1.80;;;;;;;;;;5009343;28;20832;-69
2022/11/15 08:52:33;;;;;;;3.78;1.15;;;;;;;;;;5011548;28;20268;-69
2022/11/15 08:54:58;;;;;;;4.20;1.42;;;;;;;;;;5008914;28;20025;-69
2022/11/15 08:57:23;;;;;;;1.50;0.60;;;;;;;;;;5009384;28;20036;-69
2022/11/15 08:59:48;;;;;;;5.25;1.73;;;;;;;;;;5009898;28;20791;-69
2022/11/15 09:02:14;;;;;;;3.00;1.10;;;;;;;;;;5002652;28;20025;-69
2022/11/15 09:04:43;;;;;;;5.20;1.58;;;;;;;;;;5010820;28;20022;-69
2022/11/15 09:07:11;;;;;;;4.88;1.42;;;;;;;;;;5010078;28;20036;-69
2022/11/15 09:09:36;;;;;;;2.85;1.35;;;;;;;;;;5011072;28;20014;-69
2022/11/15 09:12:02;;;;;;;3.88;1.58;;;;;;;;;;5010130;28;20398;-69
2022/11/15 09:14:27;;;;;;;2.28;1.35;;;;;;;;;;5006481;28;20117;-69
2022/11/15 09:16:52;;;;;;;4.35;1.02;;;;;;;;;;5007500;28;20034;-69
2022/11/15 09:19:17;;;;;;;0.90;0.53;;;;;;;;;;5009562;28;20041;-68
2022/11/15 09:21:43;;;;;;;4.50;1.10;;;;;;;;;;5010180;28;20271;-68
2022/11/15 09:24:08;;;;;;;6.50;2.40;;;;;;;;;;5010794;28;20272;-68
2022/11/15 09:26:33;;;;;;;3.38;1.33;;;;;;;;;;5008265;28;20289;-69
2022/11/15 09:28:58;;;;;;;6.53;1.42;;;;;;;;;;5007051;28;20018;-69
2022/11/15 09:31:24;;;;;;;2.30;1.47;;;;;;;;;;5002442;28;20491;-69
2022/11/15 09:33:49;;;;;;;2.53;1.15;;;;;;;;;;5010240;28;20265;-69
2022/11/15 09:36:16;;;;;;;0.50;0.40;;;;;;;;;;5010732;28;20033;-69
2022/11/15 09:38:41;;;;;;;1.20;0.47;;;;;;;;;;5009742;28;20014;-69
2022/11/15 09:41:06;;;;;;;1.57;1.00;;;;;;;;;;5009659;28;20076;-69
2022/11/15 09:43:36;;;;;;;1.70;0.57;;;;;;;;;;5008491;28;20273;-69
2022/11/15 09:46:14;;;;;;;4.28;1.40;;;;;;;;;;5009321;28;20021;-69
2022/11/15 09:48:48;;;;;;;1.30;0.50;;;;;;;;;;5009541;28;20018;-69
2022/11/15 09:51:22;;;;;;;2.05;1.08;;;;;;;;;;5009688;28;20018;-70
2022/11/15 09:54:11;;;;;;;3.03;0.98;;;;;;;;;;5011070;28;20424;-69
2022/11/15 09:56:37;;;;;;;0.77;0.63;;;;;;;;;;4996107;28;20486;-69
2022/11/15 09:59:14;;;;;;;1.35;0.75;;;;;;;;;;5003713;28;20073;-69
2022/11/15 10:01:58;;;;;;;3.75;1.50;;;;;;;;;;5007930;28;20049;-69
2022/11/15 10:04:25;;;;;;;1.17;0.75;;;;;;;;;;5008827;28;20029;-69
2022/11/15 10:06:53;;;;;;;3.33;0.75;;;;;;;;;;5007977;28;20022;-69
2022/11/15 10:09:25;;;;;;;3.38;0.77;;;;;;;;;;5009636;28;20390;-69
2022/11/15 10:11:50;;;;;;;5.63;0.55;;;;;;;;;;5009008;28;20097;-69
2022/11/15 10:14:16;;;;;;;3.38;1.17;;;;;;;;;;5008372;28;20453;-69
2022/11/15 10:16:54;;;;;;;2.30;0.30;;;;;;;;;;5008275;28;20022;-69
2022/11/15 10:19:28;;;;;;;0.88;0.50;;;;;;;;;;5009570;28;20022;-69
2022/11/15 10:22:15;;;;;;;2.42;0.90;;;;;;;;;;5009612;28;20026;-69
2022/11/15 10:24:44;;;;;;;6.57;1.17;;;;;;;;;;5008598;28;20022;-69
2022/11/15 10:27:11;;;;;;;1.83;0.90;;;;;;;;;;5008316;28;20026;-69
2022/11/15 10:29:42;;;;;;;4.53;0.93;;;;;;;;;;5007103;28;20018;-69
2022/11/15 10:32:07;;;;;;;3.65;0.70;;;;;;;;;;5007885;28;20138;-69
2022/11/15 10:34:35;;;;;;;3.00;0.40;;;;;;;;;;5009696;28;20045;-69
2022/11/15 10:37:01;;;;;;;8.13;0.80;;;;;;;;;;5007161;28;20281;-69
2022/11/15 10:39:27;;;;;;;0.60;0.28;;;;;;;;;;5009521;28;20029;-69
2022/11/15 10:41:52;;;;;;;3.10;0.52;;;;;;;;;;5006782;28;20426;-69
2022/11/15 10:44:25;;;;;;;0.90;0.52;;;;;;;;;;5006089;28;20066;-69
2022/11/15 10:46:53;;;;;;;2.15;0.43;;;;;;;;;;5007645;28;20029;-69
2022/11/15 10:49:20;;;;;;;1.42;0.45;;;;;;;;;;5005166;28;20022;-69
2022/11/15 10:51:49;;;;;;;1.75;0.57;;;;;;;;;;5008798;28;20533;-69
2022/11/15 10:54:20;;;;;;;1.43;0.60;;;;;;;;;;5004179;28;20032;-69
2022/11/15 10:56:49;;;;;;;2.30;0.28;;;;;;;;;;5004963;28;20075;-69
2022/11/15 10:59:16;;;;;;;3.00;0.60;;;;;;;;;;5009213;28;20096;-69
2022/11/15 11:01:47;;;;;;;0.38;0.20;;;;;;;;;;5007465;28;20041;-69
2022/11/15 11:04:13;;;;;;;1.13;0.50;;;;;;;;;;5006325;28;20065;-69
2022/11/15 11:06:51;;;;;;;1.10;0.50;;;;;;;;;;5006762;28;20149;-69
2022/11/15 11:09:23;;;;;;;2.22;0.20;;;;;;;;;;5008768;28;20018;-69
2022/11/15 11:11:49;;;;;;;2.08;0.50;;;;;;;;;;5004177;28;20026;-69
2022/11/15 11:14:22;;;;;;;0.35;0.35;;;;;;;;;;5006532;28;20026;-69
2022/11/15 11:16:51;;;;;;;3.30;0.63;;;;;;;;;;5005688;28;20026;-69
2022/11/15 11:19:23;;;;;;;2.90;0.75;;;;;;;;;;5005021;28;20025;-69
2022/11/15 11:21:49;;;;;;;1.38;0.28;;;;;;;;;;5008075;28;20036;-69
2022/11/15 11:24:14;;;;;;;1.20;0.40;;;;;;;;;;5007591;28;20360;-70
2022/11/15 11:27:08;;;;;;;1.40;0.35;;;;;;;;;;5008878;28;20301;-69
2022/11/15 11:29:54;;;;;;;1.05;0.60;;;;;;;;;;4954475;28;20054;-69
2022/11/15 11:32:28;;;;;;;1.67;0.70;;;;;;;;;;5005012;28;20030;-69
2022/11/15 11:34:59;;;;;;;2.58;0.30;;;;;;;;;;5006090;28;20018;-69
2022/11/15 11:37:44;;;;;;;0.70;0.47;;;;;;;;;;5006672;28;20077;-69
2022/11/15 11:40:30;;;;;;;1.75;0.45;;;;;;;;;;4969727;28;20033;-69
2022/11/15 11:42:58;;;;;;;1.98;0.60;;;;;;;;;;5009455;28;20029;-69
2022/11/15 11:45:36;;;;;;;3.58;0.70;;;;;;;;;;5010041;28;20093;-69
2022/11/15 11:48:10;;;;;;;3.40;0.88;;;;;;;;;;5009690;28;20345;-69
2022/11/15 11:50:37;;;;;;;4.78;0.50;;;;;;;;;;5009079;28;20014;-69
2022/11/15 11:53:02;;;;;;;0.50;0.20;;;;;;;;;;5009598;28;20045;-69
2022/11/15 11:55:42;;;;;;;1.33;0.37;;;;;;;;;;5009308;28;20049;-69
2022/11/15 11:58:26;;;;;;;1.40;0.30;;;;;;;;;;5010946;28;20076;-69
2022/11/15 12:00:55;;;;;;;3.85;0.40;;;;;;;;;;5007950;28;20029;-69
2022/11/15 12:03:38;;;;;;;0.70;0.30;;;;;;;;;;5011373;28;20112;-69
2022/11/15 12:06:22;;;;;;;3.88;0.68;;;;;;;;;;5007551;28;20474;-69
2022/11/15 12:08:47;;;;;;;2.90;0.73;;;;;;;;;;5005194;28;20034;-69
2022/11/15 12:11:15;;;;;;;0.98;0.47;;;;;;;;;;5012715;28;20385;-68
2022/11/15 12:13:42;;;;;;;3.60;0.22;;;;;;;;;;5009867;28;20052;-68
2022/11/15 12:16:11;;;;;;;6.03;0.50;;;;;;;;;;5011952;28;20194;-68
2022/11/15 12:18:37;;;;;;;3.03;0.80;;;;;;;;;;5009773;28;20123;-68
2022/11/15 12:21:08;;;;;;;2.50;0.65;;;;;;;;;;5009302;28;20026;-68
2022/11/15 12:23:39;;;;;;;5.85;1.08;;;;;;;;;;5010021;28;20014;-68
2022/11/15 12:26:09;;;;;;;1.08;0.30;;;;;;;;;;5011008;28;20041;-68
2022/11/15 12:28:38;;;;;;;4.72;0.55;;;;;;;;;;5011400;28;20807;-68
2022/11/15 12:31:06;;;;;;;7.25;0.80;;;;;;;;;;5010225;28;20053;-68
2022/11/15 12:33:36;;;;;;;2.08;0.47;;;;;;;;;;5009476;28;20026;-68
2022/11/15 12:36:03;;;;;;;5.70;0.88;;;;;;;;;;5008091;28;20014;-68
2022/11/15 12:38:47;;;;;;;4.05;0.70;;;;;;;;;;5010892;28;20087;-68
2022/11/15 12:41:14;;;;;;;1.17;0.30;;;;;;;;;;5011029;28;20026;-68
2022/11/15 12:43:40;;;;;;;1.13;0.30;;;;;;;;;;5009740;28;20655;-68
2022/11/15 12:46:10;;;;;;;3.85;0.50;;;;;;;;;;5009761;28;20036;-68
2022/11/15 12:48:35;;;;;;;3.47;0.70;;;;;;;;;;5008533;28;20099;-68
2022/11/15 12:51:00;;;;;;;0.98;0.30;;;;;;;;;;5008352;28;20474;-68
2022/11/15 12:53:26;;;;;;;0.45;0.30;;;;;;;;;;5011034;28;20022;-68
2022/11/15 12:56:10;;;;;;;4.82;0.55;;;;;;;;;;5010095;28;20518;-68
2022/11/15 12:58:46;;;;;;;1.48;0.55;;;;;;;;;;5005668;28;20108;-68
2022/11/15 13:01:30;;;;;;;4.70;0.63;;;;;;;;;;5006542;28;20049;-68
2022/11/15 13:04:21;;;;;;;3.63;0.55;;;;;;;;;;5007601;28;20025;-68
2022/11/15 13:06:51;;;;;;;3.88;0.30;;;;;;;;;;5010516;28;20018;-68
2022/11/15 13:09:31;;;;;;;0.85;0.40;;;;;;;;;;5010760;28;20024;-68
2022/11/15 13:11:57;;;;;;;3.67;1.05;;;;;;;;;;5003324;28;20105;-68
2022/11/15 13:14:37;;;;;;;1.15;0.40;;;;;;;;;;5003790;28;20090;-68
2022/11/15 13:17:21;;;;;;;5.03;0.50;;;;;;;;;;5011721;28;20221;-68
2022/11/15 13:19:48;;;;;;;2.58;0.65;;;;;;;;;;5022725;28;20080;-68
2022/11/15 13:24:58;;;;;;;2.72;0.80;;;;;;;;;;5010196;28;20060;-68
2022/11/15 13:27:24;;;;;;;2.28;0.63;;;;;;;;;;5006780;28;20030;-68
2022/11/15 13:29:49;;;;;;;2.65;0.68;;;;;;;;;;5008987;28;20014;-68
2022/11/15 13:32:15;;;;;;;13.10;0.80;;;;;;;;;;5008492;28;20025;-68
2022/11/15 13:34:46;;;;;;;5.38;1.00;;;;;;;;;;5007101;28;20022;-68
2022/11/15 13:37:20;;;;;;;3.10;0.98;;;;;;;;;;5010052;28;20164;-68
2022/11/15 13:39:45;;;;;;;1.77;0.75;;;;;;;;;;5003228;28;20446;-68
2022/11/15 13:42:18;;;;;;;3.60;1.00;;;;;;;;;;5005850;28;20025;-68
2022/11/15 13:44:58;;;;;;;13.73;1.10;;;;;;;;;;5007389;28;20096;-68
2022/11/15 13:47:26;;;;;;;2.10;1.00;;;;;;;;;;5009042;28;20061;-68
2022/11/15 13:49:51;;;;;;;3.60;0.93;;;;;;;;;;5009986;28;20025;-68
2022/11/15 13:52:17;;;;;;;1.00;0.60;;;;;;;;;;5010170;28;20387;-69
2022/11/15 13:54:43;;;;;;;8.48;1.25;;;;;;;;;;5008546;28;20261;-68
2022/11/15 13:57:14;;;;;;;2.55;0.93;;;;;;;;;;5002748;28;20025;-69
2022/11/15 13:59:47;;;;;;;2.95;0.82;;;;;;;;;;5006877;28;20030;-68
2022/11/15 14:02:14;;;;;;;6.30;1.50;;;;;;;;;;5007361;28;20459;-68
2022/11/15 14:04:46;;;;;;;2.20;1.27;;;;;;;;;;5007418;28;20383;-68
2022/11/15 14:07:16;;;;;;;4.93;1.38;;;;;;;;;;5005135;28;20033;-69
2022/11/15 14:09:41;;;;;;;4.95;1.23;;;;;;;;;;5009140;28;20018;-68
2022/11/15 14:12:24;;;;;;;1.92;1.17;;;;;;;;;;5004697;28;20383;-68
2022/11/15 14:14:49;;;;;;;6.15;1.15;;;;;;;;;;5006056;28;20026;-69
2022/11/15 14:17:30;;;;;;;2.58;1.20;;;;;;;;;;5005653;28;20032;-69
2022/11/15 14:19:56;;;;;;;4.25;1.20;;;;;;;;;;5003354;28;20060;-69
2022/11/15 14:22:22;;;;;;;5.85;0.90;;;;;;;;;;5002023;28;20058;-69
2022/11/15 14:25:05;;;;;;;5.85;1.63;;;;;;;;;;5006153;28;20143;-69
2022/11/15 14:27:30;;;;;;;10.00;2.17;;;;;;;;;;5006578;28;20363;-67
2022/11/15 14:29:55;;;;;;;3.13;1.67;;;;;;;;;;5006731;28;20068;-67
2022/11/15 14:32:22;;;;;;;3.07;1.43;;;;;;;;;;5008145;28;20025;-67
2022/11/15 14:34:48;;;;;;;9.95;1.98;;;;;;;;;;5007085;28;20776;-67
2022/11/15 14:37:20;;;;;;;4.25;1.42;;;;;;;;;;5009966;28;20021;-69
2022/11/15 14:39:45;;;;;;;5.50;1.52;;;;;;;;;;5007998;28;20053;-68
2022/11/15 14:42:10;;;;;;;3.83;0.73;;;;;;;;;;5006334;28;20053;-68
2022/11/15 14:44:35;;;;;;;5.17;1.47;;;;;;;;;;5001764;28;20291;-69
2022/11/15 14:47:01;;;;;;;2.17;1.13;;;;;;;;;;5004903;28;20277;-69
2022/11/15 14:49:26;;;;;;;2.17;1.08;;;;;;;;;;5005699;28;20280;-69
2022/11/15 14:51:51;;;;;;;5.90;1.50;;;;;;;;;;5009539;28;20052;-69
2022/11/15 14:54:16;;;;;;;2.30;1.13;;;;;;;;;;5009009;28;20272;-70
2022/11/15 14:56:42;;;;;;;6.30;1.47;;;;;;;;;;5005098;28;20294;-69
2022/11/15 14:59:07;;;;;;;2.78;1.08;;;;;;;;;;5005719;28;20364;-71
2022/11/15 15:01:32;;;;;;;2.58;1.40;;;;;;;;;;5008514;28;20055;-69